sensor_id;sensor_type;location;lat;lon;timestamp;P1;durP1;ratioP1;P2;durP2;ratioP2
23802;SDS011;12082;51.786;6.018;2023-03-14T00:02:08;23.10;;;21.50;;
23802;SDS011;12082;51.786;6.018;2023-03-14T00:04:34;22.07;;;20.83;;
23802;SDS011;12082;51.786;6.018;2023-03-14T00:07:00;22.93;;;21.10;;
23802;SDS011;12082;51.786;6.018;2023-03-14T00:09:26;22.00;;;20.53;;
23802;SDS011;12082;51.786;6.018;2023-03-14T00:11:54;23.43;;;21.57;;
23802;SDS011;12082;51.786;6.018;2023-03-14T00:14:20;23.53;;;21.67;;
23802;SDS011;12082;51.786;6.018;2023-03-14T00:16:46;21.00;;;19.70;;
23802;SDS011;12082;51.786;6.018;2023-03-14T00:19:12;19.67;;;17.83;;
23802;SDS011;12082;51.786;6.018;2023-03-14T00:21:38;18.67;;;16.93;;
23802;SDS011;12082;51.786;6.018;2023-03-14T00:24:04;16.90;;;15.37;;
23802;SDS011;12082;51.786;6.018;2023-03-14T00:26:31;17.70;;;15.97;;
23802;SDS011;12082;51.786;6.018;2023-03-14T00:28:57;16.10;;;15.00;;
23802;SDS011;12082;51.786;6.018;2023-03-14T00:31:23;16.30;;;15.03;;
23802;SDS011;12082;51.786;6.018;2023-03-14T00:33:51;16.90;;;15.37;;
23802;SDS011;12082;51.786;6.018;2023-03-14T00:36:17;16.80;;;15.23;;
23802;SDS011;12082;51.786;6.018;2023-03-14T00:38:45;15.70;;;14.50;;
23802;SDS011;12082;51.786;6.018;2023-03-14T00:41:13;16.70;;;15.10;;
23802;SDS011;12082;51.786;6.018;2023-03-14T00:43:39;16.57;;;14.87;;
23802;SDS011;12082;51.786;6.018;2023-03-14T00:46:05;16.77;;;15.27;;
23802;SDS011;12082;51.786;6.018;2023-03-14T00:48:32;16.60;;;15.00;;
23802;SDS011;12082;51.786;6.018;2023-03-14T00:50:58;17.03;;;15.20;;
23802;SDS011;12082;51.786;6.018;2023-03-14T00:53:24;17.40;;;16.00;;
23802;SDS011;12082;51.786;6.018;2023-03-14T00:55:50;17.63;;;16.43;;
23802;SDS011;12082;51.786;6.018;2023-03-14T00:58:16;20.57;;;18.60;;
23802;SDS011;12082;51.786;6.018;2023-03-14T01:00:43;21.33;;;18.67;;
23802;SDS011;12082;51.786;6.018;2023-03-14T01:03:09;21.10;;;19.70;;
23802;SDS011;12082;51.786;6.018;2023-03-14T01:05:36;22.20;;;20.50;;
23802;SDS011;12082;51.786;6.018;2023-03-14T01:08:02;21.87;;;20.20;;
23802;SDS011;12082;51.786;6.018;2023-03-14T01:10:28;21.80;;;20.40;;
23802;SDS011;12082;51.786;6.018;2023-03-14T01:12:54;21.33;;;19.50;;
23802;SDS011;12082;51.786;6.018;2023-03-14T01:15:20;21.60;;;19.87;;
23802;SDS011;12082;51.786;6.018;2023-03-14T01:17:46;22.07;;;20.40;;
23802;SDS011;12082;51.786;6.018;2023-03-14T01:20:13;24.10;;;22.50;;
23802;SDS011;12082;51.786;6.018;2023-03-14T01:22:40;26.60;;;24.63;;
23802;SDS011;12082;51.786;6.018;2023-03-14T01:25:07;26.40;;;24.20;;
23802;SDS011;12082;51.786;6.018;2023-03-14T01:27:33;25.73;;;24.13;;
23802;SDS011;12082;51.786;6.018;2023-03-14T01:29:59;26.53;;;24.57;;
23802;SDS011;12082;51.786;6.018;2023-03-14T01:32:25;25.87;;;24.17;;
23802;SDS011;12082;51.786;6.018;2023-03-14T01:34:52;28.20;;;25.90;;
23802;SDS011;12082;51.786;6.018;2023-03-14T01:37:17;27.07;;;25.37;;
23802;SDS011;12082;51.786;6.018;2023-03-14T01:39:43;25.67;;;24.00;;
23802;SDS011;12082;51.786;6.018;2023-03-14T01:42:09;26.33;;;24.47;;
23802;SDS011;12082;51.786;6.018;2023-03-14T01:47:20;25.20;;;23.47;;
23802;SDS011;12082;51.786;6.018;2023-03-14T01:49:46;26.13;;;24.30;;
23802;SDS011;12082;51.786;6.018;2023-03-14T01:52:14;24.63;;;23.03;;
23802;SDS011;12082;51.786;6.018;2023-03-14T01:54:42;24.83;;;23.10;;
23802;SDS011;12082;51.786;6.018;2023-03-14T01:57:10;24.13;;;22.60;;
23802;SDS011;12082;51.786;6.018;2023-03-14T01:59:37;24.43;;;22.43;;
23802;SDS011;12082;51.786;6.018;2023-03-14T02:02:04;23.87;;;22.07;;
23802;SDS011;12082;51.786;6.018;2023-03-14T02:04:32;23.50;;;21.93;;
23802;SDS011;12082;51.786;6.018;2023-03-14T02:07:13;22.47;;;20.93;;
23802;SDS011;12082;51.786;6.018;2023-03-14T02:09:41;23.63;;;21.77;;
23802;SDS011;12082;51.786;6.018;2023-03-14T02:12:07;23.40;;;21.70;;
23802;SDS011;12082;51.786;6.018;2023-03-14T02:14:34;22.07;;;20.87;;
23802;SDS011;12082;51.786;6.018;2023-03-14T02:17:01;21.50;;;20.30;;
23802;SDS011;12082;51.786;6.018;2023-03-14T02:19:35;22.57;;;20.80;;
23802;SDS011;12082;51.786;6.018;2023-03-14T02:22:09;22.27;;;20.37;;
23802;SDS011;12082;51.786;6.018;2023-03-14T02:27:15;21.03;;;19.90;;
23802;SDS011;12082;51.786;6.018;2023-03-14T02:32:13;23.33;;;21.83;;
23802;SDS011;12082;51.786;6.018;2023-03-14T02:34:40;22.80;;;21.70;;
23802;SDS011;12082;51.786;6.018;2023-03-14T02:37:07;23.37;;;21.77;;
23802;SDS011;12082;51.786;6.018;2023-03-14T02:39:35;23.73;;;22.07;;
23802;SDS011;12082;51.786;6.018;2023-03-14T02:42:02;23.33;;;21.63;;
23802;SDS011;12082;51.786;6.018;2023-03-14T02:44:28;24.37;;;22.63;;
23802;SDS011;12082;51.786;6.018;2023-03-14T02:46:54;22.57;;;21.20;;
23802;SDS011;12082;51.786;6.018;2023-03-14T02:49:20;21.63;;;20.23;;
23802;SDS011;12082;51.786;6.018;2023-03-14T02:51:46;21.67;;;20.23;;
23802;SDS011;12082;51.786;6.018;2023-03-14T02:54:13;24.50;;;22.73;;
23802;SDS011;12082;51.786;6.018;2023-03-14T02:56:40;25.63;;;23.93;;
23802;SDS011;12082;51.786;6.018;2023-03-14T02:59:06;21.87;;;20.10;;
23802;SDS011;12082;51.786;6.018;2023-03-14T03:01:32;21.17;;;19.37;;
23802;SDS011;12082;51.786;6.018;2023-03-14T03:03:59;20.03;;;18.13;;
23802;SDS011;12082;51.786;6.018;2023-03-14T03:06:25;20.33;;;15.13;;
23802;SDS011;12082;51.786;6.018;2023-03-14T03:08:51;18.70;;;17.17;;
23802;SDS011;12082;51.786;6.018;2023-03-14T03:11:17;21.50;;;19.33;;
23802;SDS011;12082;51.786;6.018;2023-03-14T03:13:43;21.03;;;19.33;;
23802;SDS011;12082;51.786;6.018;2023-03-14T03:16:09;21.40;;;19.10;;
23802;SDS011;12082;51.786;6.018;2023-03-14T03:18:35;20.73;;;19.50;;
23802;SDS011;12082;51.786;6.018;2023-03-14T03:21:01;21.40;;;19.53;;
23802;SDS011;12082;51.786;6.018;2023-03-14T03:23:28;20.53;;;18.93;;
23802;SDS011;12082;51.786;6.018;2023-03-14T03:25:54;21.07;;;19.33;;
23802;SDS011;12082;51.786;6.018;2023-03-14T03:28:19;19.97;;;18.30;;
23802;SDS011;12082;51.786;6.018;2023-03-14T03:30:45;19.73;;;18.23;;
23802;SDS011;12082;51.786;6.018;2023-03-14T03:33:12;20.87;;;18.97;;
23802;SDS011;12082;51.786;6.018;2023-03-14T03:35:47;20.13;;;18.40;;
23802;SDS011;12082;51.786;6.018;2023-03-14T03:38:14;19.73;;;18.03;;
23802;SDS011;12082;51.786;6.018;2023-03-14T03:40:40;19.87;;;18.20;;
23802;SDS011;12082;51.786;6.018;2023-03-14T03:43:06;20.67;;;18.80;;
23802;SDS011;12082;51.786;6.018;2023-03-14T03:45:32;21.63;;;19.70;;
23802;SDS011;12082;51.786;6.018;2023-03-14T03:47:58;20.80;;;19.47;;
23802;SDS011;12082;51.786;6.018;2023-03-14T03:50:24;21.40;;;19.87;;
23802;SDS011;12082;51.786;6.018;2023-03-14T03:52:50;22.27;;;20.60;;
23802;SDS011;12082;51.786;6.018;2023-03-14T03:55:16;22.00;;;19.97;;
23802;SDS011;12082;51.786;6.018;2023-03-14T03:57:42;21.23;;;19.50;;
23802;SDS011;12082;51.786;6.018;2023-03-14T04:00:09;21.77;;;20.17;;
23802;SDS011;12082;51.786;6.018;2023-03-14T04:02:36;23.50;;;21.63;;
23802;SDS011;12082;51.786;6.018;2023-03-14T04:05:02;23.50;;;21.27;;
23802;SDS011;12082;51.786;6.018;2023-03-14T04:07:30;23.07;;;21.33;;
23802;SDS011;12082;51.786;6.018;2023-03-14T04:09:56;23.70;;;21.77;;
23802;SDS011;12082;51.786;6.018;2023-03-14T04:12:22;24.60;;;22.10;;
23802;SDS011;12082;51.786;6.018;2023-03-14T04:14:48;24.23;;;22.23;;
23802;SDS011;12082;51.786;6.018;2023-03-14T04:17:14;22.03;;;20.57;;
23802;SDS011;12082;51.786;6.018;2023-03-14T04:19:40;22.87;;;21.10;;
23802;SDS011;12082;51.786;6.018;2023-03-14T04:22:07;24.10;;;22.27;;
23802;SDS011;12082;51.786;6.018;2023-03-14T04:24:33;23.07;;;21.27;;
23802;SDS011;12082;51.786;6.018;2023-03-14T04:26:59;23.33;;;21.40;;
23802;SDS011;12082;51.786;6.018;2023-03-14T04:29:25;22.87;;;21.27;;
23802;SDS011;12082;51.786;6.018;2023-03-14T04:31:51;22.93;;;21.43;;
23802;SDS011;12082;51.786;6.018;2023-03-14T04:34:16;23.43;;;21.37;;
23802;SDS011;12082;51.786;6.018;2023-03-14T04:36:42;23.30;;;21.40;;
23802;SDS011;12082;51.786;6.018;2023-03-14T04:39:08;24.47;;;22.40;;
23802;SDS011;12082;51.786;6.018;2023-03-14T04:41:34;23.67;;;21.73;;
23802;SDS011;12082;51.786;6.018;2023-03-14T04:44:00;22.47;;;20.80;;
23802;SDS011;12082;51.786;6.018;2023-03-14T04:46:26;22.60;;;20.80;;
23802;SDS011;12082;51.786;6.018;2023-03-14T04:48:52;22.17;;;20.67;;
23802;SDS011;12082;51.786;6.018;2023-03-14T04:51:18;22.87;;;21.07;;
23802;SDS011;12082;51.786;6.018;2023-03-14T04:53:47;21.53;;;19.77;;
23802;SDS011;12082;51.786;6.018;2023-03-14T04:56:13;19.60;;;18.37;;
23802;SDS011;12082;51.786;6.018;2023-03-14T04:58:39;20.27;;;18.43;;
23802;SDS011;12082;51.786;6.018;2023-03-14T05:01:05;20.03;;;18.23;;
23802;SDS011;12082;51.786;6.018;2023-03-14T05:03:31;21.20;;;19.10;;
23802;SDS011;12082;51.786;6.018;2023-03-14T05:05:57;20.23;;;18.53;;
23802;SDS011;12082;51.786;6.018;2023-03-14T05:08:23;19.20;;;18.10;;
23802;SDS011;12082;51.786;6.018;2023-03-14T05:10:53;20.30;;;18.63;;
23802;SDS011;12082;51.786;6.018;2023-03-14T05:13:19;19.47;;;18.07;;
23802;SDS011;12082;51.786;6.018;2023-03-14T05:15:45;19.93;;;18.37;;
23802;SDS011;12082;51.786;6.018;2023-03-14T05:18:11;18.80;;;17.70;;
23802;SDS011;12082;51.786;6.018;2023-03-14T05:20:37;20.70;;;19.13;;
23802;SDS011;12082;51.786;6.018;2023-03-14T05:23:03;20.23;;;18.73;;
23802;SDS011;12082;51.786;6.018;2023-03-14T05:25:29;20.70;;;19.27;;
23802;SDS011;12082;51.786;6.018;2023-03-14T05:27:55;21.87;;;20.67;;
23802;SDS011;12082;51.786;6.018;2023-03-14T05:30:21;21.23;;;19.50;;
23802;SDS011;12082;51.786;6.018;2023-03-14T05:32:47;17.90;;;16.43;;
23802;SDS011;12082;51.786;6.018;2023-03-14T05:35:13;19.57;;;18.20;;
23802;SDS011;12082;51.786;6.018;2023-03-14T05:37:39;19.53;;;17.90;;
23802;SDS011;12082;51.786;6.018;2023-03-14T05:40:06;20.67;;;19.37;;
23802;SDS011;12082;51.786;6.018;2023-03-14T05:42:33;24.33;;;22.73;;
23802;SDS011;12082;51.786;6.018;2023-03-14T05:44:59;20.30;;;19.20;;
23802;SDS011;12082;51.786;6.018;2023-03-14T05:47:25;20.27;;;18.73;;
23802;SDS011;12082;51.786;6.018;2023-03-14T05:49:51;20.17;;;18.67;;
23802;SDS011;12082;51.786;6.018;2023-03-14T05:52:17;20.37;;;19.27;;
23802;SDS011;12082;51.786;6.018;2023-03-14T05:54:43;22.57;;;21.03;;
23802;SDS011;12082;51.786;6.018;2023-03-14T05:57:09;23.27;;;21.87;;
23802;SDS011;12082;51.786;6.018;2023-03-14T05:59:35;23.20;;;21.50;;
23802;SDS011;12082;51.786;6.018;2023-03-14T06:02:01;24.07;;;22.70;;
23802;SDS011;12082;51.786;6.018;2023-03-14T06:04:27;18.27;;;17.13;;
23802;SDS011;12082;51.786;6.018;2023-03-14T06:06:53;22.33;;;20.63;;
23802;SDS011;12082;51.786;6.018;2023-03-14T06:09:19;23.17;;;21.77;;
23802;SDS011;12082;51.786;6.018;2023-03-14T06:11:47;23.33;;;22.00;;
23802;SDS011;12082;51.786;6.018;2023-03-14T06:14:13;21.60;;;20.20;;
23802;SDS011;12082;51.786;6.018;2023-03-14T06:16:39;25.40;;;23.73;;
23802;SDS011;12082;51.786;6.018;2023-03-14T06:19:05;26.50;;;25.03;;
23802;SDS011;12082;51.786;6.018;2023-03-14T06:21:31;23.83;;;22.00;;
23802;SDS011;12082;51.786;6.018;2023-03-14T06:23:57;23.67;;;21.90;;
23802;SDS011;12082;51.786;6.018;2023-03-14T06:26:23;23.50;;;21.87;;
23802;SDS011;12082;51.786;6.018;2023-03-14T06:28:49;24.27;;;22.60;;
23802;SDS011;12082;51.786;6.018;2023-03-14T06:31:15;24.70;;;22.90;;
23802;SDS011;12082;51.786;6.018;2023-03-14T06:33:41;24.00;;;22.53;;
23802;SDS011;12082;51.786;6.018;2023-03-14T06:36:08;23.93;;;22.23;;
23802;SDS011;12082;51.786;6.018;2023-03-14T06:38:34;24.77;;;23.07;;
23802;SDS011;12082;51.786;6.018;2023-03-14T06:41:03;25.37;;;23.27;;
23802;SDS011;12082;51.786;6.018;2023-03-14T06:43:30;23.47;;;21.63;;
23802;SDS011;12082;51.786;6.018;2023-03-14T06:45:56;22.27;;;21.07;;
23802;SDS011;12082;51.786;6.018;2023-03-14T06:48:22;23.23;;;21.73;;
23802;SDS011;12082;51.786;6.018;2023-03-14T06:50:48;23.63;;;21.93;;
23802;SDS011;12082;51.786;6.018;2023-03-14T06:53:14;22.50;;;21.10;;
23802;SDS011;12082;51.786;6.018;2023-03-14T06:55:40;23.23;;;21.83;;
23802;SDS011;12082;51.786;6.018;2023-03-14T06:58:07;24.00;;;22.07;;
23802;SDS011;12082;51.786;6.018;2023-03-14T07:00:34;24.03;;;22.53;;
23802;SDS011;12082;51.786;6.018;2023-03-14T07:03:00;25.03;;;22.93;;
23802;SDS011;12082;51.786;6.018;2023-03-14T07:05:26;24.07;;;22.60;;
23802;SDS011;12082;51.786;6.018;2023-03-14T07:07:52;23.63;;;21.93;;
23802;SDS011;12082;51.786;6.018;2023-03-14T07:10:18;23.80;;;22.10;;
23802;SDS011;12082;51.786;6.018;2023-03-14T07:12:44;23.80;;;22.30;;
23802;SDS011;12082;51.786;6.018;2023-03-14T07:15:10;26.07;;;24.30;;
23802;SDS011;12082;51.786;6.018;2023-03-14T07:17:36;26.57;;;24.47;;
23802;SDS011;12082;51.786;6.018;2023-03-14T07:20:02;26.30;;;24.80;;
23802;SDS011;12082;51.786;6.018;2023-03-14T07:22:29;26.50;;;24.50;;
23802;SDS011;12082;51.786;6.018;2023-03-14T07:24:56;28.20;;;26.40;;
23802;SDS011;12082;51.786;6.018;2023-03-14T07:27:22;26.63;;;24.60;;
23802;SDS011;12082;51.786;6.018;2023-03-14T07:29:48;26.00;;;23.90;;
23802;SDS011;12082;51.786;6.018;2023-03-14T07:32:14;23.70;;;21.50;;
23802;SDS011;12082;51.786;6.018;2023-03-14T07:34:40;21.13;;;19.10;;
23802;SDS011;12082;51.786;6.018;2023-03-14T07:37:06;20.37;;;19.00;;
23802;SDS011;12082;51.786;6.018;2023-03-14T07:39:32;23.60;;;21.90;;
23802;SDS011;12082;51.786;6.018;2023-03-14T07:41:59;22.07;;;20.57;;
23802;SDS011;12082;51.786;6.018;2023-03-14T07:44:25;22.77;;;20.97;;
23802;SDS011;12082;51.786;6.018;2023-03-14T07:46:51;21.83;;;20.13;;
23802;SDS011;12082;51.786;6.018;2023-03-14T07:49:17;23.30;;;21.33;;
23802;SDS011;12082;51.786;6.018;2023-03-14T07:51:43;21.63;;;19.83;;
23802;SDS011;12082;51.786;6.018;2023-03-14T07:54:09;20.50;;;19.30;;
23802;SDS011;12082;51.786;6.018;2023-03-14T07:56:35;21.83;;;20.60;;
23802;SDS011;12082;51.786;6.018;2023-03-14T07:59:01;19.23;;;18.30;;
23802;SDS011;12082;51.786;6.018;2023-03-14T08:01:28;18.20;;;17.10;;
23802;SDS011;12082;51.786;6.018;2023-03-14T08:03:54;17.57;;;16.70;;
23802;SDS011;12082;51.786;6.018;2023-03-14T08:06:20;17.10;;;16.23;;
23802;SDS011;12082;51.786;6.018;2023-03-14T08:08:46;18.40;;;17.40;;
23802;SDS011;12082;51.786;6.018;2023-03-14T08:11:12;20.07;;;19.07;;
23802;SDS011;12082;51.786;6.018;2023-03-14T08:13:38;22.03;;;20.93;;
23802;SDS011;12082;51.786;6.018;2023-03-14T08:16:04;21.83;;;20.57;;
23802;SDS011;12082;51.786;6.018;2023-03-14T08:18:30;21.50;;;20.27;;
23802;SDS011;12082;51.786;6.018;2023-03-14T08:20:56;21.03;;;19.93;;
23802;SDS011;12082;51.786;6.018;2023-03-14T08:23:23;20.17;;;19.07;;
23802;SDS011;12082;51.786;6.018;2023-03-14T08:25:49;19.43;;;18.43;;
23802;SDS011;12082;51.786;6.018;2023-03-14T08:28:15;18.63;;;17.47;;
23802;SDS011;12082;51.786;6.018;2023-03-14T08:30:41;17.10;;;16.20;;
23802;SDS011;12082;51.786;6.018;2023-03-14T08:33:07;17.47;;;16.47;;
23802;SDS011;12082;51.786;6.018;2023-03-14T08:35:33;15.80;;;15.00;;
23802;SDS011;12082;51.786;6.018;2023-03-14T08:37:59;16.83;;;15.93;;
23802;SDS011;12082;51.786;6.018;2023-03-14T08:40:26;18.60;;;17.60;;
23802;SDS011;12082;51.786;6.018;2023-03-14T08:42:52;19.07;;;17.87;;
23802;SDS011;12082;51.786;6.018;2023-03-14T08:45:18;21.10;;;19.80;;
23802;SDS011;12082;51.786;6.018;2023-03-14T08:47:44;21.77;;;20.43;;
23802;SDS011;12082;51.786;6.018;2023-03-14T08:50:10;20.77;;;19.57;;
23802;SDS011;12082;51.786;6.018;2023-03-14T08:52:36;20.60;;;19.40;;
23802;SDS011;12082;51.786;6.018;2023-03-14T08:55:05;19.70;;;18.70;;
23802;SDS011;12082;51.786;6.018;2023-03-14T08:57:31;19.30;;;18.20;;
23802;SDS011;12082;51.786;6.018;2023-03-14T08:59:57;20.27;;;18.97;;
23802;SDS011;12082;51.786;6.018;2023-03-14T09:02:24;20.00;;;18.60;;
23802;SDS011;12082;51.786;6.018;2023-03-14T09:04:51;19.50;;;18.50;;
23802;SDS011;12082;51.786;6.018;2023-03-14T09:07:17;19.57;;;18.27;;
23802;SDS011;12082;51.786;6.018;2023-03-14T09:09:43;19.37;;;18.10;;
23802;SDS011;12082;51.786;6.018;2023-03-14T09:12:09;19.13;;;18.03;;
23802;SDS011;12082;51.786;6.018;2023-03-14T09:14:35;21.00;;;19.70;;
23802;SDS011;12082;51.786;6.018;2023-03-14T09:17:02;19.57;;;18.47;;
23802;SDS011;12082;51.786;6.018;2023-03-14T09:19:28;18.13;;;17.03;;
23802;SDS011;12082;51.786;6.018;2023-03-14T09:21:54;21.07;;;19.30;;
23802;SDS011;12082;51.786;6.018;2023-03-14T09:24:20;20.40;;;19.30;;
23802;SDS011;12082;51.786;6.018;2023-03-14T09:26:46;19.57;;;18.13;;
23802;SDS011;12082;51.786;6.018;2023-03-14T09:29:12;18.17;;;16.77;;
23802;SDS011;12082;51.786;6.018;2023-03-14T09:31:38;22.30;;;20.37;;
23802;SDS011;12082;51.786;6.018;2023-03-14T09:34:04;20.53;;;19.00;;
23802;SDS011;12082;51.786;6.018;2023-03-14T09:36:30;20.50;;;19.20;;
23802;SDS011;12082;51.786;6.018;2023-03-14T09:38:56;20.23;;;19.03;;
23802;SDS011;12082;51.786;6.018;2023-03-14T09:41:29;20.03;;;18.77;;
23802;SDS011;12082;51.786;6.018;2023-03-14T09:44:05;22.07;;;19.97;;
23802;SDS011;12082;51.786;6.018;2023-03-14T09:46:33;19.93;;;18.93;;
23802;SDS011;12082;51.786;6.018;2023-03-14T09:49:00;21.20;;;19.90;;
23802;SDS011;12082;51.786;6.018;2023-03-14T09:51:26;20.30;;;19.00;;
23802;SDS011;12082;51.786;6.018;2023-03-14T09:53:53;19.77;;;18.67;;
23802;SDS011;12082;51.786;6.018;2023-03-14T09:56:20;21.53;;;19.47;;
23802;SDS011;12082;51.786;6.018;2023-03-14T09:58:49;20.73;;;19.20;;
23802;SDS011;12082;51.786;6.018;2023-03-14T10:01:16;19.63;;;18.53;;
23802;SDS011;12082;51.786;6.018;2023-03-14T10:03:45;21.33;;;19.47;;
23802;SDS011;12082;51.786;6.018;2023-03-14T10:06:12;21.50;;;19.63;;
23802;SDS011;12082;51.786;6.018;2023-03-14T10:08:42;21.20;;;20.00;;
23802;SDS011;12082;51.786;6.018;2023-03-14T10:11:13;23.53;;;22.13;;
23802;SDS011;12082;51.786;6.018;2023-03-14T10:13:47;24.03;;;22.40;;
23802;SDS011;12082;51.786;6.018;2023-03-14T10:16:13;22.40;;;20.60;;
23802;SDS011;12082;51.786;6.018;2023-03-14T10:18:41;21.70;;;20.07;;
23802;SDS011;12082;51.786;6.018;2023-03-14T10:21:25;20.70;;;19.37;;
23802;SDS011;12082;51.786;6.018;2023-03-14T10:23:52;20.70;;;19.40;;
23802;SDS011;12082;51.786;6.018;2023-03-14T10:26:18;21.13;;;19.70;;
23802;SDS011;12082;51.786;6.018;2023-03-14T10:28:52;24.13;;;22.53;;
23802;SDS011;12082;51.786;6.018;2023-03-14T10:31:19;21.67;;;20.33;;
23802;SDS011;12082;51.786;6.018;2023-03-14T10:33:57;21.63;;;20.03;;
23802;SDS011;12082;51.786;6.018;2023-03-14T10:36:25;23.07;;;21.33;;
23802;SDS011;12082;51.786;6.018;2023-03-14T10:41:38;25.67;;;24.10;;
23802;SDS011;12082;51.786;6.018;2023-03-14T10:44:03;27.80;;;26.20;;
23802;SDS011;12082;51.786;6.018;2023-03-14T10:46:31;27.70;;;26.03;;
23802;SDS011;12082;51.786;6.018;2023-03-14T10:48:58;27.93;;;25.40;;
23802;SDS011;12082;51.786;6.018;2023-03-14T10:51:26;30.70;;;28.47;;
23802;SDS011;12082;51.786;6.018;2023-03-14T10:53:56;29.17;;;25.83;;
23802;SDS011;12082;51.786;6.018;2023-03-14T10:56:23;26.93;;;24.97;;
23802;SDS011;12082;51.786;6.018;2023-03-14T10:58:58;28.63;;;26.40;;
23802;SDS011;12082;51.786;6.018;2023-03-14T11:03:53;24.57;;;22.57;;
23802;SDS011;12082;51.786;6.018;2023-03-14T11:06:22;26.97;;;24.53;;
23802;SDS011;12082;51.786;6.018;2023-03-14T11:11:19;26.53;;;24.63;;
23802;SDS011;12082;51.786;6.018;2023-03-14T11:18:51;27.17;;;24.77;;
23802;SDS011;12082;51.786;6.018;2023-03-14T11:26:48;26.77;;;23.97;;
23802;SDS011;12082;51.786;6.018;2023-03-14T11:31:43;27.83;;;24.97;;
23802;SDS011;12082;51.786;6.018;2023-03-14T11:34:13;24.60;;;23.03;;
23802;SDS011;12082;51.786;6.018;2023-03-14T11:39:17;29.47;;;22.83;;
23802;SDS011;12082;51.786;6.018;2023-03-14T11:41:44;23.53;;;21.40;;
23802;SDS011;12082;51.786;6.018;2023-03-14T11:44:24;26.53;;;23.07;;
23802;SDS011;12082;51.786;6.018;2023-03-14T11:47:00;27.17;;;24.73;;
23802;SDS011;12082;51.786;6.018;2023-03-14T11:49:42;32.03;;;24.17;;
23802;SDS011;12082;51.786;6.018;2023-03-14T11:52:11;29.97;;;23.47;;
23802;SDS011;12082;51.786;6.018;2023-03-14T11:54:46;28.93;;;24.80;;
23802;SDS011;12082;51.786;6.018;2023-03-14T11:57:18;28.57;;;25.80;;
23802;SDS011;12082;51.786;6.018;2023-03-14T12:05:25;36.00;;;28.10;;
23802;SDS011;12082;51.786;6.018;2023-03-14T12:10:53;25.27;;;22.70;;
23802;SDS011;12082;51.786;6.018;2023-03-14T12:13:18;25.47;;;22.90;;
23802;SDS011;12082;51.786;6.018;2023-03-14T12:15:49;26.50;;;24.37;;
23802;SDS011;12082;51.786;6.018;2023-03-14T12:18:19;25.17;;;22.97;;
23802;SDS011;12082;51.786;6.018;2023-03-14T12:20:56;25.63;;;22.07;;
23802;SDS011;12082;51.786;6.018;2023-03-14T12:23:22;23.37;;;20.90;;
23802;SDS011;12082;51.786;6.018;2023-03-14T12:25:49;28.00;;;25.53;;
23802;SDS011;12082;51.786;6.018;2023-03-14T12:28:31;30.07;;;25.13;;
23802;SDS011;12082;51.786;6.018;2023-03-14T12:31:02;28.43;;;25.57;;
23802;SDS011;12082;51.786;6.018;2023-03-14T12:34:00;29.97;;;24.27;;
23802;SDS011;12082;51.786;6.018;2023-03-14T12:36:48;27.57;;;24.77;;
23802;SDS011;12082;51.786;6.018;2023-03-14T12:39:22;27.60;;;24.93;;
23802;SDS011;12082;51.786;6.018;2023-03-14T12:44:38;26.23;;;23.63;;
23802;SDS011;12082;51.786;6.018;2023-03-14T12:47:26;27.43;;;25.10;;
23802;SDS011;12082;51.786;6.018;2023-03-14T12:49:52;28.23;;;25.83;;
23802;SDS011;12082;51.786;6.018;2023-03-14T12:52:27;29.77;;;27.27;;
23802;SDS011;12082;51.786;6.018;2023-03-14T12:54:57;30.00;;;27.37;;
23802;SDS011;12082;51.786;6.018;2023-03-14T13:00:02;26.03;;;24.37;;
23802;SDS011;12082;51.786;6.018;2023-03-14T13:02:42;29.10;;;26.87;;
23802;SDS011;12082;51.786;6.018;2023-03-14T13:05:18;27.70;;;25.30;;
23802;SDS011;12082;51.786;6.018;2023-03-14T13:10:23;28.97;;;26.47;;
23802;SDS011;12082;51.786;6.018;2023-03-14T13:15:34;26.57;;;24.87;;
23802;SDS011;12082;51.786;6.018;2023-03-14T13:18:17;25.83;;;23.53;;
23802;SDS011;12082;51.786;6.018;2023-03-14T13:20:48;23.10;;;21.33;;
23802;SDS011;12082;51.786;6.018;2023-03-14T13:23:22;21.33;;;19.60;;
23802;SDS011;12082;51.786;6.018;2023-03-14T13:25:50;20.93;;;19.33;;
23802;SDS011;12082;51.786;6.018;2023-03-14T13:28:16;21.00;;;19.63;;
23802;SDS011;12082;51.786;6.018;2023-03-14T13:30:44;22.00;;;20.17;;
23802;SDS011;12082;51.786;6.018;2023-03-14T13:33:17;20.30;;;18.90;;
23802;SDS011;12082;51.786;6.018;2023-03-14T13:35:45;21.27;;;19.67;;
23802;SDS011;12082;51.786;6.018;2023-03-14T13:38:21;21.70;;;20.20;;
23802;SDS011;12082;51.786;6.018;2023-03-14T13:40:48;22.67;;;20.30;;
23802;SDS011;12082;51.786;6.018;2023-03-14T13:45:41;21.90;;;20.20;;
23802;SDS011;12082;51.786;6.018;2023-03-14T13:48:08;21.43;;;19.50;;
23802;SDS011;12082;51.786;6.018;2023-03-14T13:50:35;20.67;;;18.97;;
23802;SDS011;12082;51.786;6.018;2023-03-14T13:53:01;20.77;;;19.00;;
23802;SDS011;12082;51.786;6.018;2023-03-14T13:55:27;22.17;;;19.83;;
23802;SDS011;12082;51.786;6.018;2023-03-14T13:57:55;20.57;;;18.67;;
23802;SDS011;12082;51.786;6.018;2023-03-14T14:00:22;19.07;;;17.67;;
23802;SDS011;12082;51.786;6.018;2023-03-14T14:02:51;19.40;;;18.07;;
23802;SDS011;12082;51.786;6.018;2023-03-14T14:05:18;17.30;;;16.07;;
23802;SDS011;12082;51.786;6.018;2023-03-14T14:07:44;17.93;;;16.63;;
23802;SDS011;12082;51.786;6.018;2023-03-14T14:10:11;16.60;;;15.70;;
23802;SDS011;12082;51.786;6.018;2023-03-14T14:12:39;17.33;;;15.80;;
23802;SDS011;12082;51.786;6.018;2023-03-14T14:15:26;18.10;;;16.87;;
23802;SDS011;12082;51.786;6.018;2023-03-14T14:17:54;18.80;;;17.30;;
23802;SDS011;12082;51.786;6.018;2023-03-14T14:20:24;18.97;;;16.97;;
23802;SDS011;12082;51.786;6.018;2023-03-14T14:22:56;18.50;;;17.40;;
23802;SDS011;12082;51.786;6.018;2023-03-14T14:25:22;17.83;;;16.63;;
23802;SDS011;12082;51.786;6.018;2023-03-14T14:27:49;16.57;;;15.20;;
23802;SDS011;12082;51.786;6.018;2023-03-14T14:32:45;17.83;;;16.03;;
23802;SDS011;12082;51.786;6.018;2023-03-14T14:37:56;15.87;;;14.87;;
23802;SDS011;12082;51.786;6.018;2023-03-14T14:40:23;15.37;;;14.27;;
23802;SDS011;12082;51.786;6.018;2023-03-14T14:42:49;15.33;;;14.30;;
23802;SDS011;12082;51.786;6.018;2023-03-14T14:45:17;15.40;;;14.33;;
23802;SDS011;12082;51.786;6.018;2023-03-14T14:47:54;15.67;;;14.57;;
23802;SDS011;12082;51.786;6.018;2023-03-14T14:51:06;15.37;;;14.00;;
23802;SDS011;12082;51.786;6.018;2023-03-14T14:55:53;14.50;;;13.20;;
23802;SDS011;12082;51.786;6.018;2023-03-14T15:00:50;14.80;;;13.43;;
23802;SDS011;12082;51.786;6.018;2023-03-14T15:03:17;15.33;;;14.00;;
23802;SDS011;12082;51.786;6.018;2023-03-14T15:05:43;14.73;;;13.43;;
23802;SDS011;12082;51.786;6.018;2023-03-14T15:08:10;15.87;;;14.53;;
23802;SDS011;12082;51.786;6.018;2023-03-14T15:10:36;14.83;;;13.73;;
23802;SDS011;12082;51.786;6.018;2023-03-14T15:13:02;15.27;;;14.17;;
23802;SDS011;12082;51.786;6.018;2023-03-14T15:15:28;15.67;;;14.33;;
23802;SDS011;12082;51.786;6.018;2023-03-14T15:17:54;17.37;;;15.63;;
23802;SDS011;12082;51.786;6.018;2023-03-14T15:20:20;14.67;;;13.77;;
23802;SDS011;12082;51.786;6.018;2023-03-14T15:22:48;14.97;;;13.57;;
23802;SDS011;12082;51.786;6.018;2023-03-14T15:25:14;14.33;;;13.23;;
23802;SDS011;12082;51.786;6.018;2023-03-14T15:27:40;14.23;;;13.00;;